Terminal Aerodrome Forecast
Issued by NWS

Home | Current Version | Previous Version | Text Only | Print | Product List | Glossary On
Versions: 1 2 3 4 5 6 7 8 9 10 11 12 13 14 15 16 17 18 19 20 21 22 23 24 25 26
000
FTPA31 PHFO 041700
TAFJRF
TAF
PHJR 041729Z 0418/0518 07005KT P6SM FEW050
     FM042000 08010G17KT P6SM FEW050 SCT080
     FM050500 07005KT P6SM FEW050=

USA.gov is the U.S. government's official web portal to all federal, state and local government web resources and services.